sensor_id;sensor_type;location;lat;lon;timestamp;pressure;altitude;pressure_sealevel;temperature;humidity
21664;BME280;10993;52.510;13.456;2022-12-18T00:00:51;-26007.00;;;-3.97;100.00
21664;BME280;10993;52.510;13.456;2022-12-18T00:05:52;-25998.03;;;-4.26;100.00
21664;BME280;10993;52.510;13.456;2022-12-18T00:10:52;-26001.88;;;-4.13;100.00
21664;BME280;10993;52.510;13.456;2022-12-18T00:15:54;-25989.06;;;-4.55;100.00
21664;BME280;10993;52.510;13.456;2022-12-18T00:20:58;-25993.06;;;-4.42;100.00
21664;BME280;10993;52.510;13.456;2022-12-18T00:25:59;-25982.31;;;-4.76;100.00
21664;BME280;10993;52.510;13.456;2022-12-18T00:31:02;-25983.28;;;-4.73;100.00
21664;BME280;10993;52.510;13.456;2022-12-18T00:36:03;-25976.56;;;-4.95;100.00
21664;BME280;10993;52.510;13.456;2022-12-18T00:41:04;-25972.72;;;-5.07;100.00
21664;BME280;10993;52.510;13.456;2022-12-18T00:46:06;-25971.75;;;-5.10;100.00
21664;BME280;10993;52.510;13.456;2022-12-18T00:51:07;-25965.97;;;-5.29;100.00
21664;BME280;10993;52.510;13.456;2022-12-18T00:56:08;-25967.91;;;-5.23;100.00
21664;BME280;10993;52.510;13.456;2022-12-18T01:01:10;-25964.03;;;-5.35;100.00
21664;BME280;10993;52.510;13.456;2022-12-18T01:06:12;-25970.47;;;-5.14;100.00
21664;BME280;10993;52.510;13.456;2022-12-18T01:11:14;-25968.69;;;-5.20;100.00
21664;BME280;10993;52.510;13.456;2022-12-18T01:16:17;-25963.41;;;-5.37;100.00
21664;BME280;10993;52.510;13.456;2022-12-18T01:21:17;-25965.97;;;-5.29;100.00
21664;BME280;10993;52.510;13.456;2022-12-18T01:26:18;-25949.28;;;-5.82;100.00
21664;BME280;10993;52.510;13.456;2022-12-18T01:31:21;-25952.34;;;-5.73;100.00
21664;BME280;10993;52.510;13.456;2022-12-18T01:36:23;-25949.75;;;-5.81;100.00
21664;BME280;10993;52.510;13.456;2022-12-18T01:41:28;-25953.94;;;-5.67;100.00
21664;BME280;10993;52.510;13.456;2022-12-18T01:46:50;-25957.78;;;-5.55;100.00
21664;BME280;10993;52.510;13.456;2022-12-18T01:51:50;-25941.75;;;-6.07;100.00
21664;BME280;10993;52.510;13.456;2022-12-18T01:56:50;-25951.03;;;-5.77;100.00
21664;BME280;10993;52.510;13.456;2022-12-18T02:01:52;-25945.75;;;-5.94;100.00
21664;BME280;10993;52.510;13.456;2022-12-18T02:06:59;-25957.78;;;-5.55;100.00
21664;BME280;10993;52.510;13.456;2022-12-18T02:12:07;-25948.63;;;-5.84;100.00
21664;BME280;10993;52.510;13.456;2022-12-18T02:17:18;-25950.56;;;-5.78;100.00
21664;BME280;10993;52.510;13.456;2022-12-18T02:22:27;-25952.66;;;-5.72;100.00
21664;BME280;10993;52.510;13.456;2022-12-18T02:27:32;-25949.13;;;-5.83;100.00
21664;BME280;10993;52.510;13.456;2022-12-18T02:32:36;-25951.38;;;-5.76;100.00
21664;BME280;10993;52.510;13.456;2022-12-18T02:37:39;-25953.28;;;-5.70;100.00
21664;BME280;10993;52.510;13.456;2022-12-18T02:42:41;-25952.34;;;-5.73;100.00
21664;BME280;10993;52.510;13.456;2022-12-18T02:47:45;-25956.97;;;-5.58;100.00
21664;BME280;10993;52.510;13.456;2022-12-18T02:52:55;-25950.56;;;-5.78;100.00
21664;BME280;10993;52.510;13.456;2022-12-18T02:58:04;-25946.72;;;-5.91;100.00
21664;BME280;10993;52.510;13.456;2022-12-18T03:03:09;-25942.53;;;-6.04;100.00
21664;BME280;10993;52.510;13.456;2022-12-18T03:08:13;-25945.75;;;-5.94;100.00
21664;BME280;10993;52.510;13.456;2022-12-18T03:13:22;-25950.56;;;-5.78;100.00
21664;BME280;10993;52.510;13.456;2022-12-18T03:18:26;-25944.63;;;-5.97;100.00
21664;BME280;10993;52.510;13.456;2022-12-18T03:23:33;-25949.28;;;-5.82;100.00
21664;BME280;10993;52.510;13.456;2022-12-18T03:28:38;-25936.13;;;-6.25;100.00
21664;BME280;10993;52.510;13.456;2022-12-18T03:33:42;-25939.66;;;-6.13;100.00
21664;BME280;10993;52.510;13.456;2022-12-18T03:38:45;-25940.78;;;-6.10;100.00
21664;BME280;10993;52.510;13.456;2022-12-18T03:43:51;-25938.03;;;-6.18;100.00
21664;BME280;10993;52.510;13.456;2022-12-18T03:48:58;-25942.22;;;-6.05;100.00
21664;BME280;10993;52.510;13.456;2022-12-18T03:54:02;-25935.97;;;-6.25;100.00
21664;BME280;10993;52.510;13.456;2022-12-18T03:59:05;-25934.50;;;-6.30;100.00
21664;BME280;10993;52.510;13.456;2022-12-18T04:04:08;-25931.78;;;-6.39;100.00
21664;BME280;10993;52.510;13.456;2022-12-18T04:09:10;-25939.16;;;-6.15;100.00
21664;BME280;10993;52.510;13.456;2022-12-18T04:14:12;-25950.56;;;-5.78;100.00
21664;BME280;10993;52.510;13.456;2022-12-18T04:19:12;-25938.38;;;-6.17;100.00
21664;BME280;10993;52.510;13.456;2022-12-18T04:24:13;-25926.97;;;-6.54;100.00
21664;BME280;10993;52.510;13.456;2022-12-18T04:29:14;-25931.78;;;-6.39;100.00
21664;BME280;10993;52.510;13.456;2022-12-18T04:34:15;-25931.31;;;-6.40;100.00
21664;BME280;10993;52.510;13.456;2022-12-18T04:39:15;-25933.38;;;-6.33;100.00
21664;BME280;10993;52.510;13.456;2022-12-18T04:44:17;-25922.31;;;-6.69;100.00
21664;BME280;10993;52.510;13.456;2022-12-18T04:49:17;-25923.28;;;-6.66;100.00
21664;BME280;10993;52.510;13.456;2022-12-18T04:54:19;-25926.47;;;-6.56;100.00
21664;BME280;10993;52.510;13.456;2022-12-18T04:59:20;-25927.44;;;-6.52;100.00
21664;BME280;10993;52.510;13.456;2022-12-18T05:04:21;-25931.31;;;-6.40;100.00
21664;BME280;10993;52.510;13.456;2022-12-18T05:09:23;-25933.53;;;-6.33;100.00
21664;BME280;10993;52.510;13.456;2022-12-18T05:14:24;-25931.78;;;-6.39;100.00
21664;BME280;10993;52.510;13.456;2022-12-18T05:19:25;-25929.69;;;-6.45;100.00
21664;BME280;10993;52.510;13.456;2022-12-18T05:24:25;-25935.47;;;-6.27;100.00
21664;BME280;10993;52.510;13.456;2022-12-18T05:29:27;-25935.78;;;-6.26;100.00
21664;BME280;10993;52.510;13.456;2022-12-18T05:34:27;-25939.97;;;-6.12;100.00
21664;BME280;10993;52.510;13.456;2022-12-18T05:39:27;-25943.03;;;-6.02;100.00
21664;BME280;10993;52.510;13.456;2022-12-18T05:44:29;-25940.28;;;-6.11;100.00
21664;BME280;10993;52.510;13.456;2022-12-18T05:49:29;-25943.03;;;-6.02;100.00
21664;BME280;10993;52.510;13.456;2022-12-18T05:54:30;-25943.81;;;-6.00;100.00
21664;BME280;10993;52.510;13.456;2022-12-18T05:59:32;-25938.38;;;-6.17;100.00
21664;BME280;10993;52.510;13.456;2022-12-18T06:04:32;-25942.38;;;-6.05;100.00
21664;BME280;10993;52.510;13.456;2022-12-18T06:09:33;-25949.44;;;-5.82;100.00
21664;BME280;10993;52.510;13.456;2022-12-18T06:14:34;-25950.56;;;-5.78;100.00
21664;BME280;10993;52.510;13.456;2022-12-18T06:19:35;-25947.03;;;-5.90;100.00
21664;BME280;10993;52.510;13.456;2022-12-18T06:24:35;-25941.59;;;-6.07;100.00
21664;BME280;10993;52.510;13.456;2022-12-18T06:29:37;-25939.16;;;-6.15;100.00
21664;BME280;10993;52.510;13.456;2022-12-18T06:34:37;-25938.53;;;-6.17;100.00
21664;BME280;10993;52.510;13.456;2022-12-18T06:39:38;-25936.44;;;-6.24;100.00
21664;BME280;10993;52.510;13.456;2022-12-18T06:44:39;-25936.94;;;-6.22;100.00
21664;BME280;10993;52.510;13.456;2022-12-18T06:49:40;-25936.75;;;-6.23;100.00
21664;BME280;10993;52.510;13.456;2022-12-18T06:54:40;-25937.09;;;-6.22;100.00
21664;BME280;10993;52.510;13.456;2022-12-18T06:59:42;-25940.78;;;-6.10;100.00
21664;BME280;10993;52.510;13.456;2022-12-18T07:04:42;-25935.31;;;-6.27;100.00
21664;BME280;10993;52.510;13.456;2022-12-18T07:09:42;-25934.84;;;-6.29;100.00
21664;BME280;10993;52.510;13.456;2022-12-18T07:14:44;-25943.50;;;-6.01;100.00
21664;BME280;10993;52.510;13.456;2022-12-18T07:19:44;-25945.09;;;-5.96;100.00
21664;BME280;10993;52.510;13.456;2022-12-18T07:24:45;-25943.50;;;-6.01;100.00
21664;BME280;10993;52.510;13.456;2022-12-18T07:29:46;-25948.97;;;-5.83;100.00
21664;BME280;10993;52.510;13.456;2022-12-18T07:34:47;-25948.97;;;-5.83;100.00
21664;BME280;10993;52.510;13.456;2022-12-18T07:39:47;-25951.38;;;-5.76;100.00
21664;BME280;10993;52.510;13.456;2022-12-18T07:44:48;-25939.97;;;-6.12;100.00
21664;BME280;10993;52.510;13.456;2022-12-18T07:49:49;-25942.22;;;-6.05;100.00
21664;BME280;10993;52.510;13.456;2022-12-18T07:54:49;-25934.19;;;-6.31;100.00
21664;BME280;10993;52.510;13.456;2022-12-18T07:59:51;-25955.06;;;-5.64;100.00
21664;BME280;10993;52.510;13.456;2022-12-18T08:04:51;-25952.00;;;-5.74;100.00
21664;BME280;10993;52.510;13.456;2022-12-18T08:09:52;-25949.75;;;-5.81;100.00
21664;BME280;10993;52.510;13.456;2022-12-18T08:14:53;-25951.53;;;-5.75;100.00
21664;BME280;10993;52.510;13.456;2022-12-18T08:19:53;-25948.47;;;-5.85;100.00
21664;BME280;10993;52.510;13.456;2022-12-18T08:24:54;-25950.56;;;-5.78;100.00
21664;BME280;10993;52.510;13.456;2022-12-18T08:29:55;-25953.13;;;-5.70;100.00
21664;BME280;10993;52.510;13.456;2022-12-18T08:34:56;-25954.25;;;-5.66;100.00
21664;BME280;10993;52.510;13.456;2022-12-18T08:39:56;-25955.53;;;-5.62;100.00
21664;BME280;10993;52.510;13.456;2022-12-18T08:44:58;-25959.88;;;-5.48;100.00
21664;BME280;10993;52.510;13.456;2022-12-18T08:49:58;-25951.38;;;-5.76;100.00
21664;BME280;10993;52.510;13.456;2022-12-18T08:54:58;-25951.03;;;-5.77;100.00
21664;BME280;10993;52.510;13.456;2022-12-18T09:00:00;-25950.09;;;-5.80;100.00
21664;BME280;10993;52.510;13.456;2022-12-18T09:05:00;-25956.66;;;-5.59;100.00
21664;BME280;10993;52.510;13.456;2022-12-18T09:10:01;-25954.91;;;-5.64;100.00
21664;BME280;10993;52.510;13.456;2022-12-18T09:15:03;-25957.78;;;-5.55;100.00
21664;BME280;10993;52.510;13.456;2022-12-18T09:20:05;-25974.16;;;-5.03;100.00
21664;BME280;10993;52.510;13.456;2022-12-18T09:25:06;-25967.91;;;-5.23;100.00
21664;BME280;10993;52.510;13.456;2022-12-18T09:30:10;-25978.16;;;-4.90;100.00
21664;BME280;10993;52.510;13.456;2022-12-18T09:35:10;-25982.31;;;-4.76;100.00
21664;BME280;10993;52.510;13.456;2022-12-18T09:40:13;-25986.97;;;-4.61;100.00
21664;BME280;10993;52.510;13.456;2022-12-18T09:45:16;-25984.09;;;-4.71;100.00
21664;BME280;10993;52.510;13.456;2022-12-18T09:50:23;-25994.84;;;-4.36;100.00
21664;BME280;10993;52.510;13.456;2022-12-18T09:55:29;-25988.75;;;-4.56;100.00
21664;BME280;10993;52.510;13.456;2022-12-18T10:00:33;-25991.63;;;-4.46;100.00
21664;BME280;10993;52.510;13.456;2022-12-18T10:05:37;-25992.44;;;-4.44;100.00
21664;BME280;10993;52.510;13.456;2022-12-18T10:10:45;-25995.94;;;-4.32;100.00
21664;BME280;10993;52.510;13.456;2022-12-18T10:15:58;-26001.88;;;-4.13;100.00
21664;BME280;10993;52.510;13.456;2022-12-18T10:21:06;-26009.25;;;-3.90;100.00
21664;BME280;10993;52.510;13.456;2022-12-18T10:26:10;-26015.81;;;-3.69;100.00
21664;BME280;10993;52.510;13.456;2022-12-18T10:31:16;-26003.81;;;-4.07;100.00
21664;BME280;10993;52.510;13.456;2022-12-18T10:36:17;-26009.09;;;-3.90;100.00
21664;BME280;10993;52.510;13.456;2022-12-18T10:41:25;-26016.13;;;-3.67;100.00
21664;BME280;10993;52.510;13.456;2022-12-18T10:46:28;-26016.63;;;-3.66;100.00
21664;BME280;10993;52.510;13.456;2022-12-18T10:51:30;-26020.47;;;-3.54;100.00
21664;BME280;10993;52.510;13.456;2022-12-18T10:56:33;-26009.09;;;-3.90;100.00
21664;BME280;10993;52.510;13.456;2022-12-18T11:01:49;-26021.75;;;-3.49;100.00
21664;BME280;10993;52.510;13.456;2022-12-18T11:06:57;-26017.25;;;-3.64;100.00
21664;BME280;10993;52.510;13.456;2022-12-18T11:12:00;-26016.13;;;-3.67;100.00
21664;BME280;10993;52.510;13.456;2022-12-18T11:17:02;-26014.22;;;-3.74;100.00
21664;BME280;10993;52.510;13.456;2022-12-18T11:22:18;-26002.84;;;-4.10;100.00
21664;BME280;10993;52.510;13.456;2022-12-18T11:27:19;-26009.88;;;-3.88;100.00
21664;BME280;10993;52.510;13.456;2022-12-18T11:32:39;-26013.25;;;-3.77;100.00
21664;BME280;10993;52.510;13.456;2022-12-18T11:37:40;-26017.09;;;-3.64;100.00
21664;BME280;10993;52.510;13.456;2022-12-18T11:42:47;-26009.41;;;-3.89;100.00
21664;BME280;10993;52.510;13.456;2022-12-18T11:47:56;-26001.09;;;-4.16;100.00
21664;BME280;10993;52.510;13.456;2022-12-18T11:52:57;-26001.88;;;-4.13;100.00
21664;BME280;10993;52.510;13.456;2022-12-18T11:58:03;-26003.81;;;-4.07;100.00
21664;BME280;10993;52.510;13.456;2022-12-18T12:03:22;-26003.00;;;-4.10;100.00
21664;BME280;10993;52.510;13.456;2022-12-18T12:08:32;-26006.22;;;-3.99;100.00
21664;BME280;10993;52.510;13.456;2022-12-18T12:13:43;-26012.63;;;-3.79;100.00
21664;BME280;10993;52.510;13.456;2022-12-18T12:19:00;-26015.34;;;-3.70;100.00
21664;BME280;10993;52.510;13.456;2022-12-18T12:24:10;-26028.47;;;-3.28;100.00
21664;BME280;10993;52.510;13.456;2022-12-18T12:29:29;-26023.66;;;-3.43;100.00
21664;BME280;10993;52.510;13.456;2022-12-18T12:34:41;-26022.38;;;-3.47;100.00
21664;BME280;10993;52.510;13.456;2022-12-18T12:39:47;-26021.41;;;-3.50;100.00
21664;BME280;10993;52.510;13.456;2022-12-18T12:44:50;-26021.56;;;-3.50;100.00
21664;BME280;10993;52.510;13.456;2022-12-18T12:49:54;-26031.19;;;-3.19;100.00
21664;BME280;10993;52.510;13.456;2022-12-18T12:54:55;-26032.63;;;-3.14;100.00
21664;BME280;10993;52.510;13.456;2022-12-18T13:00:01;-26022.06;;;-3.48;100.00
21664;BME280;10993;52.510;13.456;2022-12-18T13:05:16;-26022.22;;;-3.48;100.00
21664;BME280;10993;52.510;13.456;2022-12-18T13:10:31;-26018.53;;;-3.60;100.00
21664;BME280;10993;52.510;13.456;2022-12-18T13:15:37;-26019.34;;;-3.57;100.00
21664;BME280;10993;52.510;13.456;2022-12-18T13:20:42;-26022.69;;;-3.46;100.00
21664;BME280;10993;52.510;13.456;2022-12-18T13:25:44;-26019.97;;;-3.55;100.00
21664;BME280;10993;52.510;13.456;2022-12-18T13:30:52;-26019.81;;;-3.56;100.00
21664;BME280;10993;52.510;13.456;2022-12-18T13:36:02;-26015.81;;;-3.69;100.00
21664;BME280;10993;52.510;13.456;2022-12-18T13:41:10;-26017.09;;;-3.64;100.00
21664;BME280;10993;52.510;13.456;2022-12-18T13:46:27;-26024.31;;;-3.41;100.00
21664;BME280;10993;52.510;13.456;2022-12-18T13:51:32;-26020.47;;;-3.54;100.00
21664;BME280;10993;52.510;13.456;2022-12-18T13:56:33;-26019.34;;;-3.57;100.00
21664;BME280;10993;52.510;13.456;2022-12-18T14:01:34;-26010.69;;;-3.85;100.00
21664;BME280;10993;52.510;13.456;2022-12-18T14:06:36;-26023.34;;;-3.44;100.00
21664;BME280;10993;52.510;13.456;2022-12-18T14:11:37;-26022.38;;;-3.47;100.00
21664;BME280;10993;52.510;13.456;2022-12-18T14:16:37;-26015.19;;;-3.71;100.00
21664;BME280;10993;52.510;13.456;2022-12-18T14:21:45;-26012.28;;;-3.80;100.00
21664;BME280;10993;52.510;13.456;2022-12-18T14:26:47;-26008.28;;;-3.93;100.00
21664;BME280;10993;52.510;13.456;2022-12-18T14:32:06;-26010.84;;;-3.84;100.00
21664;BME280;10993;52.510;13.456;2022-12-18T14:37:11;-26008.94;;;-3.91;100.00
21664;BME280;10993;52.510;13.456;2022-12-18T14:42:12;-25998.69;;;-4.24;100.00
21664;BME280;10993;52.510;13.456;2022-12-18T14:47:14;-25996.75;;;-4.30;100.00
21664;BME280;10993;52.510;13.456;2022-12-18T14:52:25;-25996.91;;;-4.29;100.00
21664;BME280;10993;52.510;13.456;2022-12-18T14:57:32;-26000.59;;;-4.17;100.00
21664;BME280;10993;52.510;13.456;2022-12-18T15:02:36;-26000.59;;;-4.17;100.00
21664;BME280;10993;52.510;13.456;2022-12-18T15:07:41;-25994.34;;;-4.38;100.00
21664;BME280;10993;52.510;13.456;2022-12-18T15:12:44;-25995.47;;;-4.34;100.00
21664;BME280;10993;52.510;13.456;2022-12-18T15:17:44;-26004.78;;;-4.04;100.00
21664;BME280;10993;52.510;13.456;2022-12-18T15:22:47;-26008.28;;;-3.93;100.00
21664;BME280;10993;52.510;13.456;2022-12-18T15:27:47;-26004.59;;;-4.05;100.00
21664;BME280;10993;52.510;13.456;2022-12-18T15:32:48;-26009.25;;;-3.90;100.00
21664;BME280;10993;52.510;13.456;2022-12-18T15:37:51;-26003.00;;;-4.10;100.00
21664;BME280;10993;52.510;13.456;2022-12-18T15:42:53;-25999.63;;;-4.21;100.00
21664;BME280;10993;52.510;13.456;2022-12-18T15:48:20;-25994.34;;;-4.38;100.00
21664;BME280;10993;52.510;13.456;2022-12-18T15:53:22;-25996.91;;;-4.29;100.00
21664;BME280;10993;52.510;13.456;2022-12-18T15:58:22;-25998.03;;;-4.26;100.00
21664;BME280;10993;52.510;13.456;2022-12-18T16:03:23;-25990.66;;;-4.49;100.00
21664;BME280;10993;52.510;13.456;2022-12-18T16:08:24;-25996.44;;;-4.31;100.00
21664;BME280;10993;52.510;13.456;2022-12-18T16:13:25;-25994.66;;;-4.37;100.00
21664;BME280;10993;52.510;13.456;2022-12-18T16:18:25;-25995.47;;;-4.34;100.00
21664;BME280;10993;52.510;13.456;2022-12-18T16:23:27;-25996.28;;;-4.31;100.00
21664;BME280;10993;52.510;13.456;2022-12-18T16:28:27;-25996.59;;;-4.30;100.00
21664;BME280;10993;52.510;13.456;2022-12-18T16:33:27;-25995.00;;;-4.36;100.00
21664;BME280;10993;52.510;13.456;2022-12-18T16:38:29;-26002.53;;;-4.11;100.00
21664;BME280;10993;52.510;13.456;2022-12-18T16:43:29;-26001.09;;;-4.16;100.00
21664;BME280;10993;52.510;13.456;2022-12-18T16:48:30;-25994.50;;;-4.37;100.00
21664;BME280;10993;52.510;13.456;2022-12-18T16:53:32;-26001.72;;;-4.14;100.00
21664;BME280;10993;52.510;13.456;2022-12-18T16:58:33;-25997.41;;;-4.28;100.00
21664;BME280;10993;52.510;13.456;2022-12-18T17:03:33;-25997.72;;;-4.27;100.00
21664;BME280;10993;52.510;13.456;2022-12-18T17:08:35;-25995.78;;;-4.33;100.00
21664;BME280;10993;52.510;13.456;2022-12-18T17:13:35;-25992.91;;;-4.42;100.00
21664;BME280;10993;52.510;13.456;2022-12-18T17:18:36;-25992.28;;;-4.44;100.00
21664;BME280;10993;52.510;13.456;2022-12-18T17:23:37;-25987.78;;;-4.59;100.00
21664;BME280;10993;52.510;13.456;2022-12-18T17:28:39;-25989.22;;;-4.54;100.00
21664;BME280;10993;52.510;13.456;2022-12-18T17:33:40;-25988.75;;;-4.56;100.00
21664;BME280;10993;52.510;13.456;2022-12-18T17:38:42;-25991.16;;;-4.48;100.00
21664;BME280;10993;52.510;13.456;2022-12-18T17:43:42;-25985.22;;;-4.67;100.00
21664;BME280;10993;52.510;13.456;2022-12-18T17:48:45;-25979.13;;;-4.87;100.00
21664;BME280;10993;52.510;13.456;2022-12-18T17:53:47;-25986.00;;;-4.64;100.00
21664;BME280;10993;52.510;13.456;2022-12-18T17:58:48;-25981.84;;;-4.78;100.00
21664;BME280;10993;52.510;13.456;2022-12-18T18:03:49;-25962.59;;;-5.40;100.00
21664;BME280;10993;52.510;13.456;2022-12-18T18:08:52;-25979.28;;;-4.86;100.00
21664;BME280;10993;52.510;13.456;2022-12-18T18:13:53;-25982.81;;;-4.75;100.00
21664;BME280;10993;52.510;13.456;2022-12-18T18:19:05;-25980.88;;;-4.81;100.00
21664;BME280;10993;52.510;13.456;2022-12-18T18:24:07;-25980.25;;;-4.83;100.00
21664;BME280;10993;52.510;13.456;2022-12-18T18:29:12;-25977.03;;;-4.93;100.00
21664;BME280;10993;52.510;13.456;2022-12-18T18:34:14;-25976.06;;;-4.96;100.00
21664;BME280;10993;52.510;13.456;2022-12-18T18:39:16;-25969.19;;;-5.18;100.00
21664;BME280;10993;52.510;13.456;2022-12-18T18:44:18;-25975.13;;;-4.99;100.00
21664;BME280;10993;52.510;13.456;2022-12-18T18:49:19;-25974.63;;;-5.01;100.00
21664;BME280;10993;52.510;13.456;2022-12-18T18:54:21;-25971.09;;;-5.12;100.00
21664;BME280;10993;52.510;13.456;2022-12-18T18:59:21;-25973.34;;;-5.05;100.00
21664;BME280;10993;52.510;13.456;2022-12-18T19:04:22;-25972.38;;;-5.08;100.00
21664;BME280;10993;52.510;13.456;2022-12-18T19:09:23;-25970.16;;;-5.15;100.00
21664;BME280;10993;52.510;13.456;2022-12-18T19:14:24;-25971.28;;;-5.12;100.00
21664;BME280;10993;52.510;13.456;2022-12-18T19:19:24;-25972.22;;;-5.09;100.00
21664;BME280;10993;52.510;13.456;2022-12-18T19:24:27;-25972.22;;;-5.09;100.00
21664;BME280;10993;52.510;13.456;2022-12-18T19:29:27;-25967.09;;;-5.25;100.00
21664;BME280;10993;52.510;13.456;2022-12-18T19:34:28;-25971.09;;;-5.12;100.00
21664;BME280;10993;52.510;13.456;2022-12-18T19:39:30;-25972.22;;;-5.09;100.00
21664;BME280;10993;52.510;13.456;2022-12-18T19:44:30;-25963.56;;;-5.37;100.00
21664;BME280;10993;52.510;13.456;2022-12-18T19:49:30;-25973.66;;;-5.04;100.00
21664;BME280;10993;52.510;13.456;2022-12-18T19:54:33;-25974.94;;;-5.00;100.00
21664;BME280;10993;52.510;13.456;2022-12-18T19:59:33;-25974.63;;;-5.01;100.00
21664;BME280;10993;52.510;13.456;2022-12-18T20:04:34;-25974.31;;;-5.02;100.00
21664;BME280;10993;52.510;13.456;2022-12-18T20:09:36;-25968.22;;;-5.22;100.00
21664;BME280;10993;52.510;13.456;2022-12-18T20:14:37;-25972.72;;;-5.07;100.00
21664;BME280;10993;52.510;13.456;2022-12-18T20:19:37;-25974.94;;;-5.00;100.00
21664;BME280;10993;52.510;13.456;2022-12-18T20:24:39;-25973.84;;;-5.04;100.00
21664;BME280;10993;52.510;13.456;2022-12-18T20:29:39;-25974.63;;;-5.01;100.00
21664;BME280;10993;52.510;13.456;2022-12-18T20:34:40;-25974.47;;;-5.01;100.00
21664;BME280;10993;52.510;13.456;2022-12-18T20:39:41;-25975.91;;;-4.97;100.00
21664;BME280;10993;52.510;13.456;2022-12-18T20:44:42;-25977.34;;;-4.92;100.00
21664;BME280;10993;52.510;13.456;2022-12-18T20:49:42;-25975.28;;;-4.99;100.00
21664;BME280;10993;52.510;13.456;2022-12-18T20:54:45;-25974.63;;;-5.01;100.00
21664;BME280;10993;52.510;13.456;2022-12-18T20:59:45;-25974.31;;;-5.02;100.00
21664;BME280;10993;52.510;13.456;2022-12-18T21:04:45;-25975.44;;;-4.98;100.00
21664;BME280;10993;52.510;13.456;2022-12-18T21:09:47;-25979.75;;;-4.84;100.00
21664;BME280;10993;52.510;13.456;2022-12-18T21:14:47;-25980.25;;;-4.83;100.00
21664;BME280;10993;52.510;13.456;2022-12-18T21:19:48;-25976.25;;;-4.96;100.00
21664;BME280;10993;52.510;13.456;2022-12-18T21:24:49;-25977.03;;;-4.93;100.00
21664;BME280;10993;52.510;13.456;2022-12-18T21:29:50;-25980.56;;;-4.82;100.00
21664;BME280;10993;52.510;13.456;2022-12-18T21:34:51;-25981.69;;;-4.78;100.00
21664;BME280;10993;52.510;13.456;2022-12-18T21:39:53;-25980.56;;;-4.82;100.00
21664;BME280;10993;52.510;13.456;2022-12-18T21:44:53;-25980.56;;;-4.82;100.00
21664;BME280;10993;52.510;13.456;2022-12-18T21:49:53;-25983.44;;;-4.73;100.00
21664;BME280;10993;52.510;13.456;2022-12-18T21:54:55;-25983.13;;;-4.74;100.00
21664;BME280;10993;52.510;13.456;2022-12-18T21:59:55;-25982.50;;;-4.76;100.00
21664;BME280;10993;52.510;13.456;2022-12-18T22:04:56;-25983.59;;;-4.72;100.00
21664;BME280;10993;52.510;13.456;2022-12-18T22:09:58;-25983.94;;;-4.71;100.00
21664;BME280;10993;52.510;13.456;2022-12-18T22:14:58;-25988.09;;;-4.58;100.00
21664;BME280;10993;52.510;13.456;2022-12-18T22:19:58;-25987.63;;;-4.59;100.00
21664;BME280;10993;52.510;13.456;2022-12-18T22:25:00;-25981.53;;;-4.79;100.00
21664;BME280;10993;52.510;13.456;2022-12-18T22:30:01;-25983.94;;;-4.71;100.00
21664;BME280;10993;52.510;13.456;2022-12-18T22:35:05;-25982.16;;;-4.77;100.00
21664;BME280;10993;52.510;13.456;2022-12-18T22:40:09;-25988.75;;;-4.56;100.00
21664;BME280;10993;52.510;13.456;2022-12-18T22:45:16;-25981.84;;;-4.78;100.00
21664;BME280;10993;52.510;13.456;2022-12-18T22:50:17;-25989.88;;;-4.52;100.00
21664;BME280;10993;52.510;13.456;2022-12-18T22:55:18;-25989.88;;;-4.52;100.00
21664;BME280;10993;52.510;13.456;2022-12-18T23:00:19;-25987.94;;;-4.58;100.00
21664;BME280;10993;52.510;13.456;2022-12-18T23:05:19;-25988.09;;;-4.58;100.00
21664;BME280;10993;52.510;13.456;2022-12-18T23:10:21;-25989.88;;;-4.52;100.00
21664;BME280;10993;52.510;13.456;2022-12-18T23:15:21;-25988.91;;;-4.55;100.00
21664;BME280;10993;52.510;13.456;2022-12-18T23:20:22;-25988.25;;;-4.57;100.00
21664;BME280;10993;52.510;13.456;2022-12-18T23:25:23;-25988.09;;;-4.58;100.00
21664;BME280;10993;52.510;13.456;2022-12-18T23:30:24;-25987.63;;;-4.59;100.00
21664;BME280;10993;52.510;13.456;2022-12-18T23:35:24;-25987.63;;;-4.59;100.00
21664;BME280;10993;52.510;13.456;2022-12-18T23:40:26;-25987.94;;;-4.58;100.00
21664;BME280;10993;52.510;13.456;2022-12-18T23:45:27;-25988.91;;;-4.55;100.00
21664;BME280;10993;52.510;13.456;2022-12-18T23:50:27;-25989.38;;;-4.54;100.00
21664;BME280;10993;52.510;13.456;2022-12-18T23:55:29;-25988.09;;;-4.58;100.00
